createdAt,value
2023-08-17T00:09:36.337Z,100.00
2023-08-17T00:19:40.729Z,100.00
2023-08-17T00:29:43.919Z,100.00
2023-08-17T00:39:48.346Z,100.00
2023-08-17T00:49:51.659Z,100.00
2023-08-17T01:00:04.744Z,100.00
2023-08-17T01:10:10.589Z,100.00
2023-08-17T01:20:18.255Z,100.00
2023-08-17T01:30:22.560Z,100.00
2023-08-17T01:40:30.012Z,100.00
2023-08-17T01:50:34.410Z,100.00
2023-08-17T02:00:37.559Z,100.00
2023-08-17T02:10:42.083Z,100.00
2023-08-17T02:20:45.849Z,100.00
2023-08-17T02:30:50.677Z,100.00
2023-08-17T02:40:53.803Z,100.00
2023-08-17T02:50:58.477Z,100.00
2023-08-17T03:01:04.910Z,100.00
2023-08-17T03:11:11.122Z,100.00
2023-08-17T03:21:14.243Z,100.00
2023-08-17T03:31:19.056Z,100.00
2023-08-17T03:41:24.657Z,100.00
2023-08-17T03:51:29.045Z,100.00
2023-08-17T04:01:32.732Z,100.00
2023-08-17T04:11:38.602Z,100.00
2023-08-17T04:21:41.886Z,100.00
2023-08-17T04:31:47.367Z,100.00
2023-08-17T04:41:50.975Z,100.00
2023-08-17T04:52:03.744Z,100.00
2023-08-17T05:02:06.946Z,100.00
2023-08-17T05:12:11.771Z,100.00
2023-08-17T05:22:15.083Z,100.00
2023-08-17T05:32:19.459Z,100.00
2023-08-17T05:42:25.411Z,100.00
2023-08-17T05:52:29.919Z,100.00
2023-08-17T06:02:33.106Z,100.00
2023-08-17T06:12:37.318Z,100.00
2023-08-17T06:22:40.317Z,100.00
2023-08-17T06:32:44.814Z,100.00
2023-08-17T06:42:47.749Z,100.00
2023-08-17T06:52:52.322Z,100.00
2023-08-17T07:02:57.965Z,100.00
2023-08-17T07:13:05.547Z,100.00
2023-08-17T07:23:08.817Z,100.00
2023-08-17T07:33:13.403Z,100.00
2023-08-17T07:43:17.490Z,100.00
2023-08-17T07:53:22.125Z,100.00
2023-08-17T08:03:24.929Z,100.00
2023-08-17T08:13:29.423Z,100.00
2023-08-17T08:23:32.474Z,100.00
2023-08-17T08:33:36.770Z,100.00
2023-08-17T08:43:40.948Z,100.00
2023-08-17T08:53:48.114Z,100.00
2023-08-17T09:03:52.080Z,100.00
2023-08-17T09:13:56.689Z,100.00
2023-08-17T09:24:00.670Z,100.00
2023-08-17T09:34:08.352Z,100.00
2023-08-17T09:44:11.644Z,100.00
2023-08-17T09:54:23.438Z,100.00
2023-08-17T10:04:26.760Z,100.00
2023-08-17T10:14:37.681Z,100.00
2023-08-17T10:34:52.384Z,100.00
2023-08-17T10:44:55.517Z,100.00
2023-08-17T10:55:01.981Z,100.00
2023-08-17T11:05:05.567Z,100.00
2023-08-17T11:15:11.054Z,100.00
2023-08-17T11:25:14.223Z,100.00
2023-08-17T11:35:18.739Z,98.76
2023-08-17T11:45:27.621Z,97.40
2023-08-17T11:55:32.547Z,96.45
2023-08-17T12:05:35.707Z,95.33
2023-08-17T12:15:41.115Z,95.21
2023-08-17T12:25:44.515Z,96.01
2023-08-17T12:35:49.050Z,96.00
2023-08-17T12:45:52.416Z,95.04
2023-08-17T12:55:57.127Z,95.05
2023-08-17T13:06:00.457Z,93.96
2023-08-17T13:16:06.438Z,94.34
2023-08-17T13:26:09.812Z,93.56
2023-08-17T13:36:14.199Z,93.41
2023-08-17T13:46:17.281Z,92.59
2023-08-17T13:56:21.866Z,91.42
2023-08-17T14:06:24.933Z,85.55
2023-08-17T14:16:29.222Z,85.55
2023-08-17T14:26:33.250Z,84.76
2023-08-17T14:36:37.703Z,84.02
2023-08-17T14:46:41.785Z,83.38
2023-08-17T14:56:47.481Z,86.59
2023-08-17T15:06:50.481Z,85.25
2023-08-17T15:16:54.860Z,85.73
2023-08-17T15:26:57.922Z,85.38
2023-08-17T15:37:02.412Z,86.57
2023-08-17T15:47:05.321Z,87.71
2023-08-17T15:57:09.760Z,87.97
2023-08-17T16:07:12.782Z,88.06
2023-08-17T16:17:16.967Z,88.19
2023-08-17T16:27:20.039Z,87.71
2023-08-17T16:37:24.546Z,86.14
2023-08-17T16:47:28.344Z,86.06
2023-08-17T16:57:33.106Z,86.08
2023-08-17T17:07:36.219Z,87.52
2023-08-17T17:17:40.664Z,89.49
2023-08-17T17:27:43.839Z,90.87
2023-08-17T17:37:49.089Z,91.65
2023-08-17T17:47:52.221Z,91.71
2023-08-17T17:57:57.477Z,92.38
2023-08-17T18:08:00.549Z,93.41
2023-08-17T18:18:06.764Z,94.64
2023-08-17T18:28:09.954Z,95.21
2023-08-17T18:38:14.325Z,96.40
2023-08-17T18:48:17.518Z,97.20
2023-08-17T18:58:21.963Z,97.68
2023-08-17T19:08:25.025Z,98.96
2023-08-17T19:18:29.662Z,99.32
2023-08-17T19:28:32.789Z,99.85
2023-08-17T19:38:37.074Z,100.00
2023-08-17T19:48:40.186Z,100.00
2023-08-17T19:58:44.520Z,100.00
2023-08-17T20:08:47.700Z,100.00
2023-08-17T20:18:53.115Z,100.00
2023-08-17T20:28:56.297Z,100.00
2023-08-17T20:39:07.165Z,100.00
2023-08-17T20:49:10.131Z,100.00
2023-08-17T20:59:14.481Z,100.00
2023-08-17T21:09:17.972Z,100.00
2023-08-17T21:19:22.273Z,100.00
2023-08-17T21:29:25.631Z,100.00
2023-08-17T21:39:30.382Z,100.00
2023-08-17T21:49:33.605Z,100.00
2023-08-17T21:59:38.233Z,100.00
2023-08-17T22:09:41.419Z,100.00
2023-08-17T22:19:45.783Z,100.00
2023-08-17T22:29:49.054Z,100.00
2023-08-17T22:39:53.361Z,100.00
2023-08-17T22:49:56.822Z,100.00
2023-08-17T23:00:01.740Z,100.00
2023-08-17T23:10:05.404Z,100.00
2023-08-17T23:20:11.644Z,100.00
2023-08-17T23:30:15.051Z,100.00
2023-08-17T23:40:19.449Z,100.00
2023-08-17T23:50:23.098Z,100.00
